Hauptseite
METAR-TAF:

METAR-TAF

Flughäfen :

Flughafen Paris-Beauvais-Tillé

Beauvais, Frankreich

Breite: 49-28N, Länge: 002-07E, Höhe: 109 m

Beobachtung

Neuester Wetterbericht von vor 32 Minuten, um 13:00 UTC
Wind 10 kt aus West
Temperatur 24°C
Luftfeuchtigkeit 44%
Luftdruck 1018 hPa
Sichtweite 10 km oder mehr
keine Wolken unter 1500 m und keine Kumulonimbus oder Gewitterwolken

METAR: LFOB 171300Z AUTO 26010KT CAVOK 24/11 Q1018 NOSIG

Zeit: 15:32 (13:32 UTC)

Prognose

Neuester Wetterbericht von vor 2 Stunden und 32 Minuten, um 11:00 UTC
Gültige Prognose vom 17 um 12 UTC bis 18 um 12 UTC
Wind 7 kt aus West
Sichtweite 10 km oder mehr
keine Wolken unter 1500 m und keine Kumulonimbus oder Gewitterwolken

TAF: LFOB 171100Z 1712/1812 28007KT CAVOK

Wetterbeobachtungen und Prognosen von mehr als 4000 Flughäfen (METAR und TAF Bericht).

Die verfügbaren Stationen werden durch gelbe und rote Markierungen auf der Karte dargestellt.

Führen Sie die Maus auf sie, um den Namen der Station zu sehen.

Darauf klicken, um die Beobachtung von Wetterbeobachtungen und Prognosen zu sehen.

Um die Karte zu ändern : klicken Sie auf den grünen Tasten mit einem schwarzen Kreuz Zum Vergrößern, auf den grünen Button mit einem Gedankenstrich zu verkleinern, oder auf die grünen Pfeile für benachbarte Karten.


METAR-TAF: